Time;durP1;ratioP1;P1;durP2;ratioP2;P2;SDS_P1;SDS_P2;PMS_P1;PMS_P2;Temp;Humidity;BMP_temperature;BMP_pressure;BME280_temperature;BME280_humidity;BME280_pressure;Samples;Min_cycle;Max_cycle;Signal;HPM_P1;HPM_P2
2024/04/17 00:00:48;;;;;;;12.40;5.10;;;;;;;13.07;100.00;99142.85;109476;1251;66799;-56
2024/04/17 00:03:15;;;;;;;12.20;4.30;;;;;;;13.04;100.00;99141.14;109473;1251;71384;-55
2024/04/17 00:05:43;;;;;;;11.70;5.00;;;;;;;13.00;100.00;99141.48;109478;1251;61687;-56
2024/04/17 00:08:12;;;;;;;13.20;4.40;;;;;;;12.97;100.00;99150.66;109510;1251;59438;-56
2024/04/17 00:10:40;;;;;;;13.80;4.60;;;;;;;12.92;100.00;99154.16;109480;1251;74695;-55
2024/04/17 00:13:08;;;;;;;10.70;5.20;;;;;;;12.89;100.00;99154.84;109466;1251;65275;-56
2024/04/17 00:15:35;;;;;;;12.20;4.70;;;;;;;12.88;100.00;99154.06;109491;1251;72830;-55
2024/04/17 00:18:03;;;;;;;11.20;4.70;;;;;;;12.85;100.00;99146.83;109470;1251;61729;-55
2024/04/17 00:20:31;;;;;;;10.90;4.60;;;;;;;12.83;100.00;99143.64;109439;1251;60079;-56
2024/04/17 00:22:58;;;;;;;11.80;4.30;;;;;;;12.78;100.00;99135.30;109430;1251;74673;-55
2024/04/17 00:25:26;;;;;;;13.30;5.00;;;;;;;12.75;100.00;99131.20;109489;1251;67564;-55
2024/04/17 00:27:53;;;;;;;11.60;5.40;;;;;;;12.72;100.00;99129.36;109454;1251;70696;-56
2024/04/17 00:30:20;;;;;;;14.50;5.70;;;;;;;12.69;100.00;99132.42;109472;1251;58947;-55
2024/04/17 00:32:48;;;;;;;11.90;5.20;;;;;;;12.66;100.00;99129.69;109456;1251;58971;-56
2024/04/17 00:35:15;;;;;;;9.80;4.10;;;;;;;12.64;100.00;99135.34;109481;1251;74788;-56
2024/04/17 00:37:43;;;;;;;16.30;5.00;;;;;;;12.60;100.00;99141.05;109529;1251;67328;-56
2024/04/17 00:40:11;;;;;;;13.60;4.60;;;;;;;12.56;100.00;99143.55;109511;1251;72844;-55
2024/04/17 00:42:39;;;;;;;12.20;4.90;;;;;;;12.52;100.00;99137.27;109472;1251;59382;-56
2024/04/17 00:45:06;;;;;;;11.20;4.60;;;;;;;12.49;100.00;99140.06;109494;1251;60531;-55
2024/04/17 00:47:34;;;;;;;13.20;5.50;;;;;;;12.47;100.00;99141.58;109535;1251;74276;-55
2024/04/17 00:50:01;;;;;;;14.30;4.80;;;;;;;12.45;100.00;99142.05;109436;1251;66088;-55
2024/04/17 00:52:29;;;;;;;11.70;5.50;;;;;;;12.45;100.00;99144.30;109317;1253;70459;-55
2024/04/17 00:54:58;;;;;;;11.30;4.50;;;;;;;12.46;100.00;99140.39;109223;1254;61121;-55
2024/04/17 00:57:25;;;;;;;11.00;4.60;;;;;;;12.46;100.00;99135.40;109421;1253;58947;-55
2024/04/17 00:59:53;;;;;;;11.10;4.80;;;;;;;12.45;100.00;99127.69;109469;1253;74861;-55
2024/04/17 01:02:20;;;;;;;12.70;5.60;;;;;;;12.46;100.00;99122.02;109412;1253;66891;-56
2024/04/17 01:04:47;;;;;;;12.00;4.90;;;;;;;12.48;100.00;99130.95;109428;1253;72341;-55
2024/04/17 01:07:15;;;;;;;11.50;5.20;;;;;;;12.47;100.00;99129.00;109430;1251;61768;-55
2024/04/17 01:09:43;;;;;;;10.60;5.50;;;;;;;12.50;100.00;99125.02;109338;1251;59034;-55
2024/04/17 01:12:10;;;;;;;9.50;4.80;;;;;;;12.51;100.00;99129.39;109519;1251;74721;-55
2024/04/17 01:14:37;;;;;;;12.00;5.20;;;;;;;12.51;100.00;99133.05;109454;1251;67505;-56
2024/04/17 01:17:05;;;;;;;10.00;4.40;;;;;;;12.50;100.00;99134.50;109470;1251;71419;-55
2024/04/17 01:19:32;;;;;;;14.40;5.60;;;;;;;12.51;100.00;99138.70;109363;1251;60482;-55
2024/04/17 01:22:00;;;;;;;11.30;5.20;;;;;;;12.47;100.00;99143.14;109512;1251;59400;-55
2024/04/17 01:24:27;;;;;;;14.20;5.10;;;;;;;12.42;100.00;99146.43;109471;1251;74670;-56
2024/04/17 01:26:55;;;;;;;8.60;4.50;;;;;;;12.37;100.00;99143.33;109511;1251;66112;-55
2024/04/17 01:29:22;;;;;;;12.10;5.20;;;;;;;12.33;100.00;99145.14;109461;1251;73081;-55
2024/04/17 01:31:50;;;;;;;11.60;5.10;;;;;;;12.30;100.00;99149.30;109517;1251;61862;-55
2024/04/17 01:34:17;;;;;;;12.50;4.50;;;;;;;12.26;100.00;99150.61;109154;1251;429416;-56
2024/04/17 01:36:44;;;;;;;10.20;4.80;;;;;;;12.29;100.00;99149.87;109461;1251;74640;-55
2024/04/17 01:39:12;;;;;;;12.40;4.60;;;;;;;12.31;100.00;99146.59;109523;1251;67402;-55
2024/04/17 01:41:39;;;;;;;14.20;5.30;;;;;;;12.31;100.00;99143.73;109453;1251;71336;-55
2024/04/17 01:44:06;;;;;;;13.80;5.30;;;;;;;12.32;100.00;99142.20;109436;1251;60443;-55
2024/04/17 01:46:34;;;;;;;13.20;5.10;;;;;;;12.31;100.00;99141.31;109420;1251;58899;-56
2024/04/17 01:49:01;;;;;;;11.90;5.10;;;;;;;12.34;100.00;99140.74;109452;1251;74304;-56
2024/04/17 01:51:29;;;;;;;9.50;3.90;;;;;;;12.38;100.00;99139.95;109474;1251;67563;-55
2024/04/17 01:53:56;;;;;;;10.90;4.80;;;;;;;12.41;100.00;99139.60;109465;1251;73166;-55
2024/04/17 01:56:23;;;;;;;12.90;5.20;;;;;;;12.42;100.00;99137.12;109499;1251;59515;-56
2024/04/17 01:58:51;;;;;;;11.10;5.30;;;;;;;12.38;100.00;99132.33;109428;1251;60118;-55
2024/04/17 02:01:19;;;;;;;10.10;4.90;;;;;;;12.38;100.00;99129.18;109446;1251;74741;-55
2024/04/17 02:03:47;;;;;;;10.60;4.80;;;;;;;12.39;100.00;99126.77;109472;1251;65523;-55
2024/04/17 02:06:15;;;;;;;14.80;5.60;;;;;;;12.42;100.00;99127.41;109315;1251;72689;-56
2024/04/17 02:08:42;;;;;;;8.00;4.20;;;;;;;12.45;100.00;99125.36;109435;1251;60742;-56
2024/04/17 02:11:10;;;;;;;13.40;4.90;;;;;;;12.45;100.00;99133.41;109413;1251;60055;-56
2024/04/17 02:13:37;;;;;;;12.60;5.10;;;;;;;12.44;100.00;99130.53;109496;1251;74789;-55
2024/04/17 02:16:06;;;;;;;13.30;5.00;;;;;;;12.44;100.00;99127.20;109453;1251;67012;-56
2024/04/17 02:18:38;;;;;;;11.30;5.10;;;;;;;12.44;100.00;99123.38;109540;1251;71434;-55
2024/04/17 02:21:05;;;;;;;13.10;5.80;;;;;;;12.42;100.00;99126.05;109422;1251;60402;-55
2024/04/17 02:23:33;;;;;;;10.30;5.10;;;;;;;12.41;100.00;99122.35;109499;1251;58929;-55
2024/04/17 02:26:00;;;;;;;12.10;5.00;;;;;;;12.46;100.00;99116.46;109415;1253;73813;-56
2024/04/17 02:28:28;;;;;;;12.50;5.80;;;;;;;12.48;100.00;99111.45;109471;1251;67222;-56
2024/04/17 02:30:55;;;;;;;12.50;5.70;;;;;;;12.45;100.00;99107.30;109414;1251;71446;-55
2024/04/17 02:33:23;;;;;;;10.50;4.40;;;;;;;12.42;100.00;99110.23;109468;1251;61694;-56
2024/04/17 02:35:51;;;;;;;14.00;6.00;;;;;;;12.33;100.00;99106.16;109402;1251;59336;-55
2024/04/17 02:38:18;;;;;;;11.80;4.60;;;;;;;12.31;100.00;99109.04;109424;1251;72796;-55
2024/04/17 02:40:45;;;;;;;12.50;5.10;;;;;;;12.32;100.00;99109.99;109501;1251;65493;-55
2024/04/17 02:43:13;;;;;;;12.10;4.60;;;;;;;12.35;100.00;99111.44;109473;1251;72796;-55
2024/04/17 02:45:40;;;;;;;13.60;4.50;;;;;;;12.35;100.00;99112.38;109468;1251;59067;-55
2024/04/17 02:48:08;;;;;;;11.70;4.90;;;;;;;12.37;100.00;99105.13;109432;1251;59412;-55
2024/04/17 02:50:39;;;;;;;10.20;5.00;;;;;;;12.40;100.00;99110.66;109428;1251;74739;-56
2024/04/17 02:53:07;;;;;;;10.80;4.20;;;;;;;12.45;100.00;99114.03;109527;1251;65597;-55
2024/04/17 02:55:34;;;;;;;10.60;5.40;;;;;;;12.49;100.00;99112.04;109443;1251;71439;-56
2024/04/17 02:58:01;;;;;;;11.50;4.50;;;;;;;12.52;100.00;99114.90;109383;1253;60148;-55
2024/04/17 03:00:29;;;;;;;12.50;5.90;;;;;;;12.53;100.00;99116.08;109449;1252;60295;-55
2024/04/17 03:02:56;;;;;;;13.40;5.30;;;;;;;12.57;100.00;99122.50;109427;1253;73416;-55
2024/04/17 03:05:25;;;;;;;10.20;4.70;;;;;;;12.61;100.00;99121.19;109430;1253;66954;-55
2024/04/17 03:07:53;;;;;;;10.90;4.70;;;;;;;12.64;100.00;99124.35;109353;1253;71967;-55
2024/04/17 03:10:20;;;;;;;10.10;4.40;;;;;;;12.71;100.00;99127.18;109375;1253;60182;-55
2024/04/17 03:12:48;;;;;;;15.50;5.80;;;;;;;12.76;100.00;99132.32;109424;1252;60154;-55
2024/04/17 03:15:15;;;;;;;13.40;5.70;;;;;;;12.82;100.00;99131.73;109475;1253;73441;-56
2024/04/17 03:17:45;;;;;;;10.00;4.30;;;;;;;12.84;100.00;99126.40;109479;1253;65846;-56
2024/04/17 03:20:13;;;;;;;11.60;5.40;;;;;;;12.91;100.00;99120.33;109498;1252;72822;-55
2024/04/17 03:22:41;;;;;;;11.50;4.10;;;;;;;12.99;100.00;99122.34;109483;1251;61732;-55
2024/04/17 03:25:09;;;;;;;9.00;4.90;;;;;;;13.08;100.00;99119.48;109532;1251;59836;-55
2024/04/17 03:27:37;;;;;;;10.40;4.80;;;;;;;13.25;100.00;99121.91;109516;1254;74707;-56
2024/04/17 03:30:05;;;;;;;10.90;5.40;;;;;;;13.53;100.00;99120.38;109508;1251;65753;-55
2024/04/17 03:32:32;;;;;;;12.00;5.20;;;;;;;13.99;100.00;99124.30;109419;1251;71817;-55
2024/04/17 03:35:00;;;;;;;14.20;4.80;;;;;;;14.61;100.00;99122.64;109451;1252;61734;-55
2024/04/17 03:37:27;;;;;;;12.40;4.20;;;;;;;15.30;100.00;99112.95;109469;1251;58974;-56
2024/04/17 03:39:54;;;;;;;12.20;4.40;;;;;;;15.91;100.00;99105.30;109423;1251;75142;-56
2024/04/17 03:42:22;;;;;;;10.90;5.10;;;;;;;16.51;100.00;99099.90;109464;1251;67165;-56
2024/04/17 03:44:50;;;;;;;9.10;5.00;;;;;;;17.15;100.00;99087.27;109449;1251;72787;-56
2024/04/17 03:47:17;;;;;;;10.20;4.90;;;;;;;17.75;100.00;99072.29;109416;1251;60447;-56
2024/04/17 03:49:45;;;;;;;9.80;4.30;;;;;;;18.23;100.00;99055.60;109438;1252;58973;-56
2024/04/17 03:52:12;;;;;;;10.60;4.90;;;;;;;18.59;100.00;99035.45;109465;1252;74881;-56
2024/04/17 03:54:40;;;;;;;13.70;4.90;;;;;;;18.88;100.00;99016.48;109435;1253;65756;-56
2024/04/17 03:57:07;;;;;;;9.10;4.10;;;;;;;18.97;100.00;99003.62;109497;1252;72703;-56
2024/04/17 03:59:34;;;;;;;8.00;4.60;;;;;;;18.97;100.00;98998.20;109341;1253;60605;-56
2024/04/17 04:02:06;;;;;;;10.80;5.10;;;;;;;19.01;100.00;98988.61;109445;1251;59065;-56
2024/04/17 04:04:38;;;;;;;8.30;4.20;;;;;;;19.14;100.00;98989.25;109522;1251;74696;-56
2024/04/17 04:07:06;;;;;;;8.70;4.90;;;;;;;19.38;100.00;98988.41;109470;1253;67050;-57
2024/04/17 04:09:33;;;;;;;9.70;5.00;;;;;;;19.67;100.00;98983.05;109408;1251;71443;-56
2024/04/17 04:12:00;;;;;;;10.20;5.40;;;;;;;19.95;100.00;98972.30;109451;1251;59384;-57
2024/04/17 04:14:28;;;;;;;10.70;4.90;;;;;;;20.28;100.00;98968.53;109542;1251;59063;-56
2024/04/17 04:16:55;;;;;;;9.70;5.00;;;;;;;20.61;100.00;98960.58;109434;1251;73537;-56
2024/04/17 04:19:23;;;;;;;7.00;3.60;;;;;;;20.91;100.00;98956.61;109444;1251;65069;-57
2024/04/17 04:21:50;;;;;;;9.10;4.50;;;;;;;21.11;100.00;98956.73;109426;1253;72358;-56
2024/04/17 04:24:18;;;;;;;7.90;4.40;;;;;;;21.07;100.00;98949.59;109379;1252;60227;-56
2024/04/17 04:26:45;;;;;;;8.30;5.30;;;;;;;21.21;100.00;98948.41;109266;1252;59984;-57
2024/04/17 04:29:13;;;;;;;7.40;4.70;;;;;;;21.52;100.00;98949.75;109456;1251;74850;-57
2024/04/17 04:31:40;;;;;;;7.00;4.30;;;;;;;21.89;100.00;98947.05;109498;1251;67092;-56
2024/04/17 04:34:07;;;;;;;9.20;4.50;;;;;;;22.28;100.00;98945.64;109509;1254;70983;-56
2024/04/17 04:36:36;;;;;;;8.40;5.00;;;;;;;22.45;100.00;98946.08;109492;1251;58963;-57
2024/04/17 04:39:03;;;;;;;8.60;4.60;;;;;;;22.39;100.00;98949.10;109473;1251;58896;-56
2024/04/17 04:41:31;;;;;;;8.40;4.10;;;;;;;22.23;100.00;98953.36;109471;1251;74695;-56
2024/04/17 04:43:58;;;;;;;9.70;4.70;;;;;;;21.93;100.00;98955.41;109438;1252;65449;-56
2024/04/17 04:46:26;;;;;;;8.30;4.40;;;;;;;21.62;100.00;98962.14;109464;1252;70971;-56
2024/04/17 04:48:53;;;;;;;8.90;4.60;;;;;;;21.56;100.00;98962.54;109354;1252;58946;-57
2024/04/17 04:51:20;;;;;;;7.90;4.50;;;;;;;21.84;100.00;98971.79;109437;1253;60167;-57
2024/04/17 04:53:48;;;;;;;10.00;4.80;;;;;;;22.14;100.00;98974.89;109459;1252;73401;-57
2024/04/17 04:56:15;;;;;;;8.10;4.40;;;;;;;22.38;100.00;98974.66;109441;1252;66114;-56
2024/04/17 04:58:43;;;;;;;6.50;3.70;;;;;;;22.61;100.00;98977.82;109466;1252;72696;-56
2024/04/17 05:01:11;;;;;;;9.00;4.40;;;;;;;22.83;100.00;98971.95;109372;1252;59042;-57
2024/04/17 05:03:38;;;;;;;8.10;4.70;;;;;;;23.04;100.00;98969.42;109451;1252;60120;-57
2024/04/17 05:06:06;;;;;;;8.50;4.40;;;;;;;23.09;100.00;98974.64;109432;1252;74821;-56
2024/04/17 05:08:33;;;;;;;8.20;4.40;;;;;;;23.39;100.00;98971.84;109373;1253;66623;-57
2024/04/17 05:11:01;;;;;;;9.30;4.50;;;;;;;23.89;100.00;98967.40;109411;1252;73004;-55
2024/04/17 05:13:28;;;;;;;6.80;4.50;;;;;;;24.51;98.76;98969.52;109481;1251;59251;-55
2024/04/17 05:15:56;;;;;;;7.20;4.20;;;;;;;25.05;89.35;98962.20;109452;1251;58908;-56
2024/04/17 05:18:23;;;;;;;8.10;4.30;;;;;;;25.47;81.60;98962.89;109495;1251;74627;-55
2024/04/17 05:20:51;;;;;;;9.70;4.90;;;;;;;25.82;71.98;98961.25;109471;1251;66297;-57
2024/04/17 05:23:18;;;;;;;7.90;4.30;;;;;;;25.93;66.56;98959.84;109444;1251;73602;-57
2024/04/17 05:25:46;;;;;;;7.80;4.00;;;;;;;25.82;64.91;98961.20;109313;1251;59526;-57
2024/04/17 05:28:14;;;;;;;8.60;4.10;;;;;;;25.78;67.86;98961.65;109491;1251;60865;-56
2024/04/17 05:30:41;;;;;;;8.50;4.80;;;;;;;25.98;65.90;98957.35;109489;1251;75873;-56
2024/04/17 05:33:09;;;;;;;6.90;3.80;;;;;;;26.11;62.36;98955.91;109472;1251;66179;-57
2024/04/17 05:35:36;;;;;;;7.60;3.90;;;;;;;26.03;61.66;98953.88;109422;1251;72069;-56
2024/04/17 05:38:04;;;;;;;7.90;4.70;;;;;;;25.91;63.23;98955.00;109459;1251;59472;-56
2024/04/17 05:40:35;;;;;;;7.10;3.90;;;;;;;25.86;63.56;98948.47;109487;1251;60163;-56
2024/04/17 05:43:03;;;;;;;8.70;4.70;;;;;;;25.89;62.87;98947.31;109452;1251;77921;-56
2024/04/17 05:45:30;;;;;;;7.50;3.90;;;;;;;25.92;61.20;98949.54;109532;1251;66917;-55
2024/04/17 05:47:58;;;;;;;7.40;4.50;;;;;;;25.89;61.25;98951.80;109435;1251;71436;-55
2024/04/17 05:50:26;;;;;;;8.70;4.30;;;;;;;26.00;63.37;98952.95;109418;1251;60606;-55
2024/04/17 05:52:53;;;;;;;8.30;3.60;;;;;;;26.22;61.55;98955.86;109458;1251;59280;-56
2024/04/17 05:55:21;;;;;;;6.10;3.40;;;;;;;26.49;57.80;98952.84;109446;1251;75674;-56
2024/04/17 05:57:48;;;;;;;11.80;4.60;;;;;;;26.63;56.06;98954.02;109479;1251;66879;-55
2024/04/17 06:00:17;;;;;;;5.70;4.00;;;;;;;26.76;58.48;98951.25;109482;1251;72534;-55
2024/04/17 06:02:45;;;;;;;5.90;3.60;;;;;;;27.06;55.65;98948.83;109374;1252;59886;-58
2024/04/17 06:05:12;;;;;;;7.50;3.70;;;;;;;27.34;53.34;98949.20;109396;1253;59816;-56
2024/04/17 06:07:40;;;;;;;7.40;3.50;;;;;;;27.64;52.88;98955.18;109443;1252;76797;-56
2024/04/17 06:10:08;;;;;;;6.90;3.60;;;;;;;27.91;48.63;98963.75;109431;1252;65261;-56
2024/04/17 06:12:36;;;;;;;6.20;3.50;;;;;;;28.01;46.87;98953.91;109329;1253;71281;-56
2024/04/17 06:15:04;;;;;;;6.50;3.70;;;;;;;28.05;46.24;98963.75;109366;1252;60573;-57
2024/04/17 06:17:31;;;;;;;6.40;3.50;;;;;;;28.22;45.73;98961.52;109444;1252;58840;-57
2024/04/17 06:19:59;;;;;;;6.10;3.80;;;;;;;28.44;44.48;98961.05;109409;1253;74519;-56
2024/04/17 06:22:26;;;;;;;7.30;3.90;;;;;;;28.61;43.51;98960.37;109420;1252;66066;-56
2024/04/17 06:24:54;;;;;;;6.50;3.50;;;;;;;28.74;43.72;98962.15;109367;1253;73001;-57
2024/04/17 06:27:22;;;;;;;9.50;4.40;;;;;;;29.03;42.34;98956.85;109369;1253;59307;-56
2024/04/17 06:29:49;;;;;;;7.90;3.70;;;;;;;29.27;40.96;98961.10;109399;1252;60680;-56
2024/04/17 06:32:17;;;;;;;7.30;3.50;;;;;;;29.56;40.19;98953.11;109383;1253;74739;-56
2024/04/17 06:34:44;;;;;;;5.80;3.60;;;;;;;29.86;38.16;98954.46;109403;1251;67281;-57
2024/04/17 06:37:12;;;;;;;5.90;3.20;;;;;;;29.98;37.91;98950.27;109470;1251;72262;-57
2024/04/17 06:39:39;;;;;;;6.00;3.50;;;;;;;30.09;37.34;98942.64;109462;1251;59645;-56
2024/04/17 06:42:07;;;;;;;7.70;3.50;;;;;;;30.11;36.70;98938.95;109442;1251;59462;-57
2024/04/17 06:44:34;;;;;;;7.20;3.60;;;;;;;30.27;36.93;98938.05;109517;1251;75055;-57
2024/04/17 06:47:02;;;;;;;7.00;3.90;;;;;;;30.60;36.67;98942.55;109488;1251;66984;-57
2024/04/17 06:49:30;;;;;;;5.10;3.10;;;;;;;30.91;35.74;98940.89;109466;1251;72224;-57
2024/04/17 06:51:57;;;;;;;7.40;3.10;;;;;;;31.20;34.86;98939.81;109525;1251;59957;-56
2024/04/17 06:54:25;;;;;;;6.30;3.20;;;;;;;31.47;33.63;98938.94;109519;1251;59425;-57
2024/04/17 06:56:52;;;;;;;8.20;3.60;;;;;;;31.59;32.62;98934.80;109460;1251;68092;-57
2024/04/17 06:59:20;;;;;;;7.40;3.10;;;;;;;31.61;32.23;98928.21;109441;1251;65495;-57
2024/04/17 07:01:47;;;;;;;4.90;3.60;;;;;;;31.63;32.61;98925.26;109442;1251;73084;-57
2024/04/17 07:04:15;;;;;;;6.20;3.30;;;;;;;31.63;32.30;98919.46;109439;1251;61880;-56
2024/04/17 07:06:42;;;;;;;7.30;3.30;;;;;;;31.51;32.64;98923.18;109463;1251;59974;-57
2024/04/17 07:09:10;;;;;;;7.80;3.60;;;;;;;31.43;32.21;98917.63;109552;1250;73209;-57
2024/04/17 07:11:37;;;;;;;5.20;3.00;;;;;;;31.34;32.93;98910.28;109523;1251;66730;-56
2024/04/17 07:14:05;;;;;;;6.50;3.30;;;;;;;31.54;33.67;98908.15;109528;1251;72946;-57
2024/04/17 07:16:32;;;;;;;5.80;3.50;;;;;;;31.94;32.72;98906.82;109369;1251;59982;-56
2024/04/17 07:19:00;;;;;;;5.20;3.20;;;;;;;32.26;32.74;98901.66;109467;1254;58909;-56
2024/04/17 07:21:28;;;;;;;6.10;3.00;;;;;;;32.68;31.70;98898.69;109494;1253;74746;-56
2024/04/17 07:23:56;;;;;;;5.00;2.90;;;;;;;33.01;30.73;98900.95;109425;1251;67229;-56
2024/04/17 07:26:23;;;;;;;5.50;2.80;;;;;;;33.15;30.25;98896.80;109489;1251;71211;-56
2024/04/17 07:28:51;;;;;;;5.70;2.80;;;;;;;33.14;29.51;98891.23;109372;1251;59928;-56
2024/04/17 07:31:18;;;;;;;5.30;2.80;;;;;;;33.12;29.40;98883.27;109443;1252;60392;-56
2024/04/17 07:33:49;;;;;;;4.90;3.50;;;;;;;33.17;29.37;98884.64;109437;1251;67698;-56
2024/04/17 07:36:16;;;;;;;5.70;2.80;;;;;;;33.02;29.01;98876.04;109373;1251;68765;-56
2024/04/17 07:38:47;;;;;;;5.60;3.20;;;;;;;32.76;29.29;98872.73;109395;1251;72686;-56
2024/04/17 07:41:15;;;;;;;6.90;2.90;;;;;;;32.50;29.84;98874.70;109446;1251;61080;-56
2024/04/17 07:43:46;;;;;;;5.90;3.60;;;;;;;32.24;29.84;98872.74;109464;1251;59026;-56
2024/04/17 07:46:13;;;;;;;6.40;3.30;;;;;;;31.84;29.70;98872.52;109495;1251;67056;-56
2024/04/17 07:48:41;;;;;;;5.20;3.00;;;;;;;31.34;30.47;98870.42;109399;1251;65928;-56
2024/04/17 07:51:08;;;;;;;5.60;3.50;;;;;;;31.21;31.75;98873.23;109462;1251;71804;-56
2024/04/17 07:53:36;;;;;;;5.40;3.00;;;;;;;31.47;31.88;98870.38;109403;1251;60696;-56
2024/04/17 07:56:04;;;;;;;5.40;3.20;;;;;;;31.77;31.39;98869.47;109520;1251;59021;-56
2024/04/17 07:58:32;;;;;;;5.80;3.20;;;;;;;31.94;30.78;98869.72;109449;1251;74440;-56
2024/04/17 08:00:59;;;;;;;5.70;3.20;;;;;;;32.05;31.10;98875.20;109398;1250;69415;-56
2024/04/17 08:03:27;;;;;;;4.50;3.20;;;;;;;32.11;31.21;98878.60;109442;1252;65524;-56
2024/04/17 08:05:54;;;;;;;5.20;2.90;;;;;;;32.03;30.67;98889.33;109452;1251;60086;-55
2024/04/17 08:08:22;;;;;;;5.90;2.70;;;;;;;31.59;30.92;98895.45;109484;1251;59178;-56
2024/04/17 08:10:49;;;;;;;4.70;3.10;;;;;;;31.09;30.89;98902.14;109442;1255;75660;-56
2024/04/17 08:13:17;;;;;;;6.40;2.90;;;;;;;30.62;31.22;98893.79;109506;1251;66661;-55
2024/04/17 08:15:48;;;;;;;7.00;3.30;;;;;;;30.32;32.12;98885.88;109554;1251;74825;-55
2024/04/17 08:18:15;;;;;;;4.90;3.10;;;;;;;30.25;32.53;98883.87;109507;1251;58925;-56
2024/04/17 08:20:43;;;;;;;8.70;3.30;;;;;;;30.20;32.72;98870.77;109461;1251;60792;-55
2024/04/17 08:23:11;;;;;;;4.50;3.10;;;;;;;30.04;32.73;98864.29;109513;1251;74937;-55
2024/04/17 08:25:42;;;;;;;5.70;3.70;;;;;;;29.77;33.36;98850.17;109388;1251;65474;-55
2024/04/17 08:28:12;;;;;;;;;;;;;;;29.44;34.25;98844.39;109479;1251;71942;-56
2024/04/17 08:30:40;;;;;;;5.80;3.70;;;;;;;29.20;34.95;98848.70;109473;1251;59427;-57
2024/04/17 08:33:07;;;;;;;8.00;4.50;;;;;;;29.12;35.69;98857.91;109477;1251;59046;-56
2024/04/17 08:35:36;;;;;;;5.30;3.20;;;;;;;29.05;35.83;98854.05;109440;1251;75064;-57
2024/04/17 08:38:04;;;;;;;7.70;4.30;;;;;;;29.00;36.51;98850.84;109452;1251;65555;-56
2024/04/17 08:40:32;;;;;;;9.40;4.20;;;;;;;29.08;36.89;98841.02;109490;1251;71632;-57
2024/04/17 08:43:04;;;;;;;8.60;5.70;;;;;;;29.20;36.34;98841.13;109412;1251;59492;-56
2024/04/17 08:45:35;;;;;;;9.80;4.40;;;;;;;29.45;36.55;98837.66;109335;1251;59858;-57
2024/04/17 08:48:16;;;;;;;6.40;3.50;;;;;;;29.89;35.53;98837.44;109457;1251;73760;-57
2024/04/17 08:50:44;;;;;;;9.70;5.20;;;;;;;30.28;34.68;98833.95;109448;1253;67291;-57
2024/04/17 08:53:12;;;;;;;9.30;6.30;;;;;;;30.45;33.71;98832.64;109241;1252;72032;-57
2024/04/17 08:55:39;;;;;;;10.30;4.00;;;;;;;30.38;34.04;98830.69;109471;1252;60130;-57
2024/04/17 08:58:07;;;;;;;8.10;3.50;;;;;;;30.05;34.38;98830.92;109362;1253;60321;-57
2024/04/17 09:00:34;;;;;;;6.50;3.50;;;;;;;29.56;35.12;98832.91;109324;1254;76828;-58
2024/04/17 09:03:02;;;;;;;8.00;3.90;;;;;;;29.00;36.28;98837.11;109383;1252;65705;-56
2024/04/17 09:05:29;;;;;;;5.40;3.20;;;;;;;28.55;37.95;98851.23;109451;1253;73636;-57
2024/04/17 09:07:58;;;;;;;9.70;4.60;;;;;;;28.26;39.35;98855.67;109272;1254;58903;-57
2024/04/17 09:10:26;;;;;;;7.70;3.70;;;;;;;28.00;39.14;98864.27;109448;1251;58844;-55
2024/04/17 09:12:54;;;;;;;8.80;3.90;;;;;;;27.67;39.70;98849.66;109502;1251;74522;-56
2024/04/17 09:15:21;;;;;;;9.10;4.30;;;;;;;27.29;41.01;98856.38;109493;1251;65579;-56
2024/04/17 09:17:50;;;;;;;9.70;4.20;;;;;;;26.99;42.63;98853.03;109437;1251;71984;-56
2024/04/17 09:20:18;;;;;;;12.60;4.20;;;;;;;26.82;45.07;98852.27;109425;1251;62480;-56
2024/04/17 09:22:45;;;;;;;7.00;4.00;;;;;;;26.82;47.32;98858.31;109505;1254;59278;-55
2024/04/17 09:25:16;;;;;;;7.00;3.50;;;;;;;27.06;48.36;98860.52;109514;1251;74896;-56
2024/04/17 09:27:45;;;;;;;8.60;4.00;;;;;;;27.50;46.66;98854.35;109309;1251;65266;-56
2024/04/17 09:30:13;;;;;;;6.10;3.50;;;;;;;27.98;44.40;98853.86;109488;1251;72036;-57
2024/04/17 09:32:42;;;;;;;8.70;5.00;;;;;;;28.45;42.84;98847.89;109474;1251;60346;-56
2024/04/17 09:35:10;;;;;;;7.40;3.80;;;;;;;28.89;42.45;98841.93;109509;1251;62217;-56
2024/04/17 09:37:38;;;;;;;10.80;3.60;;;;;;;29.41;39.37;98836.96;109443;1251;74497;-56
2024/04/17 09:40:07;;;;;;;7.80;2.90;;;;;;;29.90;35.17;98836.84;109543;1251;67941;-57
2024/04/17 09:42:35;;;;;;;9.10;3.00;;;;;;;30.26;33.69;98837.57;109394;1251;72587;-57
2024/04/17 09:45:03;;;;;;;10.90;3.20;;;;;;;30.37;33.02;98833.38;109514;1254;59857;-57
2024/04/17 09:47:30;;;;;;;8.70;3.10;;;;;;;30.44;33.11;98828.22;109492;1251;60384;-56
2024/04/17 09:50:01;;;;;;;4.70;2.80;;;;;;;30.48;33.45;98830.77;109501;1251;75215;-56
2024/04/17 09:52:29;;;;;;;7.60;3.30;;;;;;;30.51;33.97;98829.93;109500;1251;65478;-56
2024/04/17 09:54:57;;;;;;;6.70;3.60;;;;;;;30.60;33.68;98824.58;109466;1251;72053;-57
2024/04/17 09:57:24;;;;;;;8.30;3.40;;;;;;;30.52;33.24;98826.27;109460;1251;60402;-56
2024/04/17 09:59:52;;;;;;;5.20;2.90;;;;;;;30.35;32.98;98827.88;109443;1251;59434;-57
2024/04/17 10:02:19;;;;;;;4.60;2.70;;;;;;;30.23;32.89;98831.06;109461;1254;73210;-56
2024/04/17 10:04:47;;;;;;;6.60;3.10;;;;;;;30.12;32.80;98817.87;109475;1251;67609;-56
2024/04/17 10:07:14;;;;;;;8.70;3.30;;;;;;;29.84;32.65;98813.73;109339;1253;72626;-56
2024/04/17 10:09:42;;;;;;;6.60;2.50;;;;;;;29.45;32.99;98819.27;109338;1253;59101;-57
2024/04/17 10:12:11;;;;;;;6.20;3.30;;;;;;;29.14;33.48;98820.72;109420;1252;60225;-56
2024/04/17 10:14:39;;;;;;;7.90;2.80;;;;;;;29.03;34.60;98816.50;109486;1251;75190;-56
2024/04/17 10:17:09;;;;;;;3.60;2.30;;;;;;;29.27;34.49;98815.64;109488;1251;66752;-56
2024/04/17 10:19:56;;;;;;;5.30;2.50;;;;;;;29.67;32.78;98806.66;109428;1251;72970;-56
2024/04/17 10:22:24;;;;;;;6.10;2.30;;;;;;;29.75;31.34;98807.86;109460;1251;60383;-57
2024/04/17 10:24:52;;;;;;;5.60;2.10;;;;;;;29.56;29.91;98806.98;109498;1251;59790;-57
2024/04/17 10:27:21;;;;;;;4.30;2.30;;;;;;;29.30;29.98;98810.95;109470;1251;76136;-57
2024/04/17 10:29:48;;;;;;;4.40;2.30;;;;;;;29.04;30.58;98810.86;109519;1251;65476;-57
2024/04/17 10:32:16;;;;;;;6.00;2.60;;;;;;;28.69;30.59;98811.60;109467;1251;72467;-56
2024/04/17 10:34:53;;;;;;;9.30;2.70;;;;;;;28.32;31.11;98808.34;109484;1251;59484;-57
2024/04/17 10:37:22;;;;;;;9.10;2.40;;;;;;;27.98;31.94;98808.02;109484;1251;59189;-57
2024/04/17 10:39:50;;;;;;;5.50;2.20;;;;;;;27.72;32.96;98814.95;109415;1253;74983;-56
2024/04/17 10:42:18;;;;;;;10.70;3.20;;;;;;;27.56;34.04;98819.83;109347;1254;66088;-57
2024/04/17 10:44:55;;;;;;;4.30;2.70;;;;;;;27.28;35.68;98814.46;109428;1252;71979;-57
2024/04/17 10:47:27;;;;;;;5.90;2.60;;;;;;;27.02;36.81;98808.38;109306;1253;59880;-57
2024/04/17 10:49:58;;;;;;;5.70;2.90;;;;;;;26.89;38.03;98805.55;109414;1253;59413;-57
2024/04/17 10:52:31;;;;;;;4.10;2.40;;;;;;;26.96;38.24;98805.64;109369;1252;74478;-57
2024/04/17 10:55:00;;;;;;;5.10;2.70;;;;;;;27.25;37.89;98800.67;109464;1251;68186;-56
2024/04/17 10:57:28;;;;;;;8.50;3.20;;;;;;;27.62;37.83;98796.96;109439;1251;74578;-58
2024/04/17 10:59:56;;;;;;;6.60;3.00;;;;;;;28.00;37.25;98802.66;109498;1251;60507;-58
2024/04/17 11:02:24;;;;;;;3.90;2.60;;;;;;;28.25;37.20;98796.31;109417;1251;60685;-55
2024/04/17 11:04:51;;;;;;;4.70;2.80;;;;;;;28.43;37.79;98794.50;109466;1251;74534;-58
2024/04/17 11:07:19;;;;;;;7.60;2.70;;;;;;;28.60;37.74;98800.14;109390;1253;67187;-56
2024/04/17 11:09:47;;;;;;;6.80;2.90;;;;;;;28.85;37.86;98799.58;109456;1251;71539;-57
2024/04/17 11:12:15;;;;;;;5.90;2.90;;;;;;;29.19;37.54;98795.77;109361;1251;59907;-57
2024/04/17 11:14:43;;;;;;;7.10;3.60;;;;;;;29.47;36.09;98792.32;109423;1254;59324;-58
2024/04/17 11:17:11;;;;;;;9.60;2.80;;;;;;;29.46;35.24;98786.83;109525;1251;74553;-58
2024/04/17 11:19:39;;;;;;;10.30;3.10;;;;;;;29.30;35.83;98789.80;109484;1251;67520;-57
2024/04/17 11:22:07;;;;;;;7.50;3.20;;;;;;;29.07;35.47;98796.00;109361;1253;71240;-58